Main page
METAR-TAF:

METAR-TAF

Airports :

Žilina Airport

Žilina, Slovakia

latitude: 49-14N, longitude: 018-36-49E, elevation: 312 m

Current weather observation

The report was made 35 minutes ago, at 08:30 UTC
Wind 4 kt from the East, varying between East/Northeast and East/Southeast
Temperature 19°C
Humidity 64%
Pressure 1017 hPa
Visibility 10 km or more
no clouds below 1500 m and no cumulonimbus

METAR: LZZI 210830Z 09004KT 060V120 CAVOK 19/12 Q1017

Time: 11:05 (09:05 UTC)

Forecast

The report was made 1 hour and 5 minutes ago, at 08:00 UTC
Forecast valid from 21 at 09 UTC to 21 at 18 UTC
Wind 2 kt from variable directions
Visibility 10 km or more
Few clouds at a height of 5000 ft
Becoming
from 21 at 09 UTC to 21 at 11 UTC
Wind 10 kt from the Southwest
Becoming
from 21 at 16 UTC to 21 at 18 UTC
Wind 5 kt from the South/Southwest
Visibility 10 km or more
no clouds below 1500 m and no cumulonimbus

TAF: LZZI 210800Z 2109/2118 VRB02KT 9999 FEW050 BECMG 2109/2111 22010KT BECMG 2116/2118 21005KT CAVOK

Weather observations and forecasts of more than 4000 airports (METAR and TAF reports).

The available stations are represented by yellow and red dots on the map.

Hover mouse over dot to see the name of the station.

Then click to see weather observations and forecasts.

To change the map : click on the green buttons with a black cross to zoom in, on the green button with a dash to zoom out, or on the green arrows for adjacent maps.


METAR-TAF: